createdAt,value
2024-02-08T00:02:44.985Z,98594.91
2024-02-08T00:07:08.059Z,98604.56
2024-02-08T00:11:31.940Z,98593.97
2024-02-08T00:15:56.808Z,98589.66
2024-02-08T00:20:24.963Z,98591.44
2024-02-08T00:24:48.355Z,98590.56
2024-02-08T00:29:11.869Z,98589.69
2024-02-08T00:33:36.395Z,98585.28
2024-02-08T00:38:02.011Z,98587.97
2024-02-08T00:42:25.470Z,98597.66
2024-02-08T00:46:52.885Z,98595.06
2024-02-08T00:51:17.992Z,98596.94
2024-02-08T00:55:45.190Z,98603.19
2024-02-08T01:00:39.586Z,98598.09
2024-02-08T01:05:03.204Z,98599.97
2024-02-08T01:09:27.694Z,98600.06
2024-02-08T01:13:53.438Z,98594.06
2024-02-08T01:18:19.766Z,98588.81
2024-02-08T01:22:43.170Z,98578.31
2024-02-08T01:27:07.178Z,98585.31
2024-02-08T01:31:33.454Z,98579.22
2024-02-08T01:35:58.488Z,98576.75
2024-02-08T01:40:23.017Z,98580.31
2024-02-08T01:44:48.478Z,98585.72
2024-02-08T01:49:20.020Z,98583.16
2024-02-08T01:53:44.625Z,98588.47
2024-02-08T01:58:08.938Z,98591.19
2024-02-08T02:02:37.576Z,98598.41
2024-02-08T02:07:03.408Z,98597.72
2024-02-08T02:11:32.879Z,98585.47
2024-02-08T02:15:56.410Z,98575.94
2024-02-08T02:20:20.452Z,98576.81
2024-02-08T02:24:46.317Z,98574.19
2024-02-08T02:29:09.882Z,98567.22
2024-02-08T02:33:35.690Z,98571.56
2024-02-08T02:38:04.364Z,98564.63
2024-02-08T02:42:29.360Z,98558.53
2024-02-08T02:46:55.157Z,98572.66
2024-02-08T02:51:18.612Z,98569.09
2024-02-08T02:55:44.295Z,98563.88
2024-02-08T03:00:22.122Z,98566.50
2024-02-08T03:04:45.568Z,98565.59
2024-02-08T03:09:16.172Z,98576.13
2024-02-08T03:13:42.879Z,98571.78
2024-02-08T03:18:09.380Z,98568.28
2024-02-08T03:22:35.814Z,98567.44
2024-02-08T03:26:58.872Z,98577.97
2024-02-08T03:31:22.281Z,98575.38
2024-02-08T03:35:54.465Z,98569.28
2024-02-08T03:40:22.439Z,98577.19
2024-02-08T03:44:45.524Z,98571.09
2024-02-08T03:49:10.394Z,98566.69
2024-02-08T03:53:38.107Z,98562.38
2024-02-08T03:58:08.712Z,98557.16
2024-02-08T04:02:36.033Z,98545.81
2024-02-08T04:07:21.079Z,98541.41
2024-02-08T04:12:03.993Z,98530.06
2024-02-08T04:16:44.584Z,98538.84
2024-02-08T04:21:24.780Z,98523.03
2024-02-08T04:26:05.612Z,98524.84
2024-02-08T04:30:47.214Z,98516.97
2024-02-08T04:35:31.096Z,98516.09
2024-02-08T04:40:12.341Z,98516.09
2024-02-08T04:44:52.787Z,98508.22
2024-02-08T04:49:34.674Z,98509.97
2024-02-08T04:53:58.430Z,98523.97
2024-02-08T04:58:46.856Z,98528.41
2024-02-08T05:03:05.971Z,98525.75
2024-02-08T05:07:30.388Z,98536.25
2024-02-08T05:11:53.808Z,98527.47
2024-02-08T05:16:16.976Z,98527.47
2024-02-08T05:20:40.495Z,98530.09
2024-02-08T05:30:06.788Z,98525.75
2024-02-08T05:34:29.943Z,98532.78
2024-02-08T05:38:57.980Z,98517.03
2024-02-08T05:43:29.492Z,98520.53
2024-02-08T05:47:52.805Z,98512.66
2024-02-08T05:52:16.363Z,98514.41
2024-02-08T05:56:41.042Z,98512.63
2024-02-08T06:01:18.073Z,98519.69
2024-02-08T06:05:42.331Z,98522.31
2024-02-08T06:10:15.452Z,98524.94
2024-02-08T06:14:40.644Z,98528.41
2024-02-08T06:19:05.321Z,98536.28
2024-02-08T06:23:29.477Z,98549.41
2024-02-08T06:27:55.133Z,98550.25
2024-02-08T06:32:45.610Z,98546.72
2024-02-08T06:37:27.847Z,98552.78
2024-02-08T06:41:54.890Z,98546.50
2024-02-08T06:46:29.371Z,98549.06
2024-02-08T06:51:10.117Z,98538.38
2024-02-08T06:55:54.816Z,98536.59
2024-02-08T07:00:36.841Z,98534.72
2024-02-08T07:05:17.224Z,98540.84
2024-02-08T07:09:57.690Z,98539.09
2024-02-08T07:14:39.442Z,98546.03
2024-02-08T07:19:20.229Z,98554.81
2024-02-08T07:23:59.782Z,98553.84
2024-02-08T07:28:39.810Z,98563.38
2024-02-08T07:33:21.786Z,98560.69
2024-02-08T07:37:45.251Z,98567.59
2024-02-08T07:42:21.416Z,98569.22
2024-02-08T07:46:48.731Z,98563.84
2024-02-08T07:51:16.998Z,98560.25
2024-02-08T07:55:59.628Z,98571.69
2024-02-08T08:00:43.246Z,98577.75
2024-02-08T08:05:16.752Z,98567.09
2024-02-08T08:09:48.155Z,98562.63
2024-02-08T08:14:31.585Z,98553.69
2024-02-08T08:18:58.586Z,98554.38
2024-02-08T08:23:28.624Z,98550.81
2024-02-08T08:27:54.332Z,98549.88
2024-02-08T08:32:35.187Z,98549.75
2024-02-08T08:37:04.235Z,98565.41
2024-02-08T08:41:28.335Z,98574.00
2024-02-08T08:45:53.515Z,98573.81
2024-02-08T08:50:20.732Z,98567.53
2024-02-08T08:54:58.082Z,98569.97
2024-02-08T08:59:21.512Z,98580.47
2024-02-08T09:03:57.564Z,98571.66
2024-02-08T09:08:24.056Z,98566.34
2024-02-08T09:13:00.033Z,98566.34
2024-02-08T09:17:27.140Z,98569.66
2024-02-08T09:21:54.278Z,98566.19
2024-02-08T09:26:17.727Z,98580.19
2024-02-08T09:30:40.773Z,98574.75
2024-02-08T09:35:14.242Z,98572.84
2024-02-08T09:40:00.128Z,98574.44
2024-02-08T09:44:27.772Z,98567.19
2024-02-08T09:48:53.340Z,98565.41
2024-02-08T09:53:29.315Z,98562.63
2024-02-08T09:57:55.051Z,98554.53
2024-02-08T10:02:26.429Z,98549.94
2024-02-08T10:07:00.606Z,98551.53
2024-02-08T10:11:37.431Z,98562.88
2024-02-08T10:16:10.834Z,98555.78
2024-02-08T10:20:47.077Z,98553.06
2024-02-08T10:25:30.930Z,98532.53
2024-02-08T10:30:00.473Z,98541.28
2024-02-08T10:34:35.497Z,98535.06
2024-02-08T10:39:04.737Z,98529.66
2024-02-08T10:43:35.667Z,98531.38
2024-02-08T10:48:01.157Z,98529.63
2024-02-08T10:52:35.032Z,98521.63
2024-02-08T10:57:10.318Z,98515.41
2024-02-08T11:01:38.771Z,98495.00
2024-02-08T11:06:05.597Z,98487.69
2024-02-08T11:10:33.899Z,98491.03
2024-02-08T11:15:02.025Z,98486.53
2024-02-08T11:19:25.615Z,98493.53
2024-02-08T11:23:54.065Z,98481.81
2024-02-08T11:28:26.050Z,98484.03
2024-02-08T11:33:03.992Z,98480.78
2024-02-08T11:37:32.136Z,98470.69
2024-02-08T11:42:01.652Z,98465.78
2024-02-08T11:46:39.240Z,98463.75
2024-02-08T11:51:13.024Z,98456.72
2024-02-08T11:55:36.119Z,98465.47
2024-02-08T12:00:01.940Z,98459.38
2024-02-08T12:04:36.862Z,98447.22
2024-02-08T12:09:04.614Z,98438.66
2024-02-08T12:13:30.897Z,98438.75
2024-02-08T12:18:07.697Z,98427.53
2024-02-08T12:22:32.984Z,98438.38
2024-02-08T12:26:59.698Z,98435.09
2024-02-08T12:31:25.364Z,98434.44
2024-02-08T12:35:49.367Z,98436.50
2024-02-08T12:40:15.485Z,98430.47
2024-02-08T12:44:41.476Z,98421.75
2024-02-08T12:49:06.037Z,98422.72
2024-02-08T12:53:29.759Z,98413.16
2024-02-08T12:57:59.209Z,98400.97
2024-02-08T13:02:24.162Z,98389.47
2024-02-08T13:06:49.989Z,98379.81
2024-02-08T13:11:13.568Z,98399.16
2024-02-08T13:15:38.475Z,98397.34
2024-02-08T13:20:13.739Z,98393.03
2024-02-08T13:24:37.972Z,98393.84
2024-02-08T13:29:01.911Z,98381.44
2024-02-08T13:33:29.822Z,98383.06
2024-02-08T13:37:55.407Z,98383.91
2024-02-08T13:42:20.607Z,98377.63
2024-02-08T13:46:44.396Z,98382.81
2024-02-08T13:51:09.036Z,98380.22
2024-02-08T14:00:05.114Z,98372.22
2024-02-08T14:04:35.387Z,98370.31
2024-02-08T14:09:19.745Z,98364.94
2024-02-08T14:13:46.266Z,98366.56
2024-02-08T14:18:27.162Z,98371.75
2024-02-08T14:23:00.884Z,98361.88
2024-02-08T14:27:25.939Z,98360.84
2024-02-08T14:31:49.457Z,98351.13
2024-02-08T14:36:13.171Z,98360.75
2024-02-08T14:40:38.510Z,98361.44
2024-02-08T14:45:12.987Z,98337.44
2024-02-08T14:49:57.413Z,98333.81
2024-02-08T14:54:21.821Z,98327.56
2024-02-08T14:58:58.381Z,98326.66
2024-02-08T15:03:29.281Z,98313.59
2024-02-08T15:08:10.098Z,98308.28
2024-02-08T15:12:34.044Z,98305.69
2024-02-08T15:17:09.224Z,98304.91
2024-02-08T15:21:39.441Z,98298.91
2024-02-08T15:26:04.912Z,98300.75
2024-02-08T15:30:38.169Z,98290.25
2024-02-08T15:35:06.475Z,98285.91
2024-02-08T15:39:51.692Z,98305.31
2024-02-08T15:44:20.623Z,98290.34
2024-02-08T15:48:46.162Z,98288.63
2024-02-08T15:53:21.809Z,98283.34
2024-02-08T15:57:46.815Z,98269.16
2024-02-08T16:02:18.609Z,98280.53
2024-02-08T16:06:55.128Z,98271.69
2024-02-08T16:11:21.301Z,98267.25
2024-02-08T16:15:57.661Z,98261.91
2024-02-08T16:20:26.055Z,98263.72
2024-02-08T16:24:50.764Z,98262.81
2024-02-08T16:29:20.953Z,98252.28
2024-02-08T16:33:49.450Z,98240.81
2024-02-08T16:38:18.372Z,98218.78
2024-02-08T16:42:48.716Z,98233.00
2024-02-08T16:47:29.633Z,98223.31
2024-02-08T16:51:55.604Z,98213.66
2024-02-08T16:56:22.855Z,98209.31
2024-02-08T17:00:50.312Z,98213.78
2024-02-08T17:05:20.328Z,98205.94
2024-02-08T17:09:48.328Z,98210.53
2024-02-08T17:14:24.931Z,98208.00
2024-02-08T17:19:08.041Z,98202.69
2024-02-08T17:23:43.443Z,98198.41
2024-02-08T17:28:26.574Z,98210.78
2024-02-08T17:32:54.532Z,98200.44
2024-02-08T17:37:19.266Z,98190.06
2024-02-08T17:41:44.751Z,98190.25
2024-02-08T17:46:08.693Z,98196.44
2024-02-08T17:50:34.930Z,98192.97
2024-02-08T17:55:01.296Z,98188.78
2024-02-08T17:59:27.020Z,98177.53
2024-02-08T18:03:50.099Z,98182.03
2024-02-08T18:08:15.352Z,98173.38
2024-02-08T18:12:43.334Z,98180.59
2024-02-08T18:17:16.358Z,98167.47
2024-02-08T18:21:39.503Z,98172.16
2024-02-08T18:26:05.027Z,98164.41
2024-02-08T18:30:30.316Z,98163.66
2024-02-08T18:34:56.662Z,98164.59
2024-02-08T18:39:28.206Z,98177.16
2024-02-08T18:43:53.583Z,98176.56
2024-02-08T18:48:21.618Z,98176.75
2024-02-08T18:52:48.819Z,98184.81
2024-02-08T18:57:12.143Z,98182.16
2024-02-08T19:01:44.612Z,98181.31
2024-02-08T19:06:16.091Z,98190.22
2024-02-08T19:10:45.217Z,98205.31
2024-02-08T19:15:10.850Z,98201.19
2024-02-08T19:19:35.627Z,98205.56
2024-02-08T19:24:01.140Z,98200.34
2024-02-08T19:28:26.841Z,98196.00
2024-02-08T19:32:52.152Z,98173.28
2024-02-08T19:37:15.500Z,98179.38
2024-02-08T19:41:39.960Z,98173.25
2024-02-08T19:46:06.484Z,98155.69
2024-02-08T19:50:32.383Z,98155.69
2024-02-08T19:54:58.553Z,98140.72
2024-02-08T19:59:28.343Z,98141.69
2024-02-08T20:03:55.174Z,98132.16
2024-02-08T20:08:18.539Z,98127.84
2024-02-08T20:12:46.465Z,98108.66
2024-02-08T20:17:11.081Z,98099.22
2024-02-08T20:21:36.335Z,98098.56
2024-02-08T20:26:00.526Z,98096.94
2024-02-08T20:30:26.594Z,98106.63
2024-02-08T20:34:49.671Z,98095.28
2024-02-08T20:39:20.556Z,98104.28
2024-02-08T20:43:49.745Z,98104.41
2024-02-08T20:48:15.299Z,98101.84
2024-02-08T20:52:39.363Z,98097.56
2024-02-08T20:57:04.236Z,98094.03
2024-02-08T21:01:28.410Z,98101.13
2024-02-08T21:05:53.329Z,98097.69
2024-02-08T21:10:16.548Z,98106.47
2024-02-08T21:14:41.607Z,98106.41
2024-02-08T21:19:10.040Z,98090.50
2024-02-08T21:23:35.715Z,98100.84
2024-02-08T21:28:07.048Z,98096.44
2024-02-08T21:32:31.508Z,98092.03
2024-02-08T21:36:54.623Z,98095.53
2024-02-08T21:41:18.681Z,98088.59
2024-02-08T21:45:47.784Z,98082.59
2024-02-08T21:50:12.569Z,98095.84
2024-02-08T21:54:35.964Z,98082.78
2024-02-08T21:59:01.206Z,98066.25
2024-02-08T22:03:24.192Z,98076.91
2024-02-08T22:07:50.170Z,98066.44
2024-02-08T22:12:13.391Z,98064.78
2024-02-08T22:16:37.205Z,98065.75
2024-02-08T22:21:00.261Z,98077.22
2024-02-08T22:25:25.640Z,98072.94
2024-02-08T22:29:49.250Z,98075.66
2024-02-08T22:34:13.116Z,98075.69
2024-02-08T22:38:36.281Z,98074.88
2024-02-08T22:43:01.715Z,98057.41
2024-02-08T22:47:25.117Z,98068.88
2024-02-08T22:51:48.898Z,98072.41
2024-02-08T22:56:12.074Z,98077.69
2024-02-08T23:01:02.312Z,98084.66
2024-02-08T23:05:28.480Z,98082.03
2024-02-08T23:09:52.075Z,98080.25
2024-02-08T23:14:20.455Z,98074.13
2024-02-08T23:18:45.603Z,98070.69
2024-02-08T23:23:09.837Z,98080.31
2024-02-08T23:27:33.232Z,98067.03
2024-02-08T23:31:56.284Z,98075.69
2024-02-08T23:36:22.181Z,98074.75
2024-02-08T23:40:45.215Z,98066.81
2024-02-08T23:45:09.930Z,98061.56
2024-02-08T23:49:35.007Z,98063.44
2024-02-08T23:53:59.828Z,98060.81
2024-02-08T23:58:25.476Z,98083.63
